createdAt,value
2023-05-10T00:00:51.942Z,7.48
2023-05-10T00:03:18.665Z,7.58
2023-05-10T00:05:45.505Z,7.52
2023-05-10T00:08:12.129Z,7.46
2023-05-10T00:10:38.922Z,7.38
2023-05-10T00:13:05.800Z,7.27
2023-05-10T00:15:32.529Z,7.22
2023-05-10T00:17:59.325Z,7.13
2023-05-10T00:20:26.128Z,7.19
2023-05-10T00:22:52.830Z,7.20
2023-05-10T00:25:19.528Z,7.15
2023-05-10T00:27:46.294Z,7.29
2023-05-10T00:30:13.174Z,7.24
2023-05-10T00:32:40.027Z,7.19
2023-05-10T00:35:07.037Z,7.16
2023-05-10T00:37:33.717Z,7.17
2023-05-10T00:40:00.533Z,7.23
2023-05-10T00:42:27.175Z,7.26
2023-05-10T00:44:53.797Z,7.05
2023-05-10T00:47:20.449Z,6.91
2023-05-10T00:49:47.253Z,6.95
2023-05-10T00:52:14.121Z,7.01
2023-05-10T00:54:41.001Z,7.01
2023-05-10T00:57:07.872Z,6.88
2023-05-10T00:59:35.055Z,7.04
2023-05-10T01:02:02.577Z,7.01
2023-05-10T01:04:29.987Z,7.04
2023-05-10T01:06:57.413Z,7.03
2023-05-10T01:09:26.218Z,7.17
2023-05-10T01:11:53.525Z,7.31
2023-05-10T01:14:21.456Z,7.21
2023-05-10T01:16:50.169Z,7.31
2023-05-10T01:19:38.766Z,7.19
2023-05-10T01:22:14.123Z,7.33
2023-05-10T01:25:10.774Z,7.18
2023-05-10T01:27:59.221Z,7.10
2023-05-10T01:30:53.296Z,7.15
2023-05-10T01:33:57.746Z,7.19
2023-05-10T01:36:33.396Z,7.21
2023-05-10T01:39:41.485Z,7.05
2023-05-10T01:42:15.120Z,6.99
2023-05-10T01:45:01.214Z,6.98
2023-05-10T01:47:38.385Z,7.04
2023-05-10T01:50:11.339Z,6.98
2023-05-10T01:52:42.977Z,6.97
2023-05-10T01:55:15.258Z,6.93
2023-05-10T01:57:44.805Z,6.96
2023-05-10T02:00:13.239Z,6.87
2023-05-10T02:02:47.205Z,6.85
2023-05-10T02:05:18.358Z,6.83
2023-05-10T02:07:46.648Z,6.75
2023-05-10T02:10:15.467Z,6.75
2023-05-10T02:12:44.502Z,6.74
2023-05-10T02:15:14.019Z,6.70
2023-05-10T02:17:42.756Z,6.73
2023-05-10T02:20:10.421Z,6.82
2023-05-10T02:22:39.868Z,6.74
2023-05-10T02:25:08.001Z,6.64
2023-05-10T02:27:35.895Z,6.65
2023-05-10T02:30:03.111Z,6.76
2023-05-10T02:32:31.012Z,6.75
2023-05-10T02:34:58.427Z,6.72
2023-05-10T02:37:26.607Z,6.70
2023-05-10T02:39:56.164Z,6.76
2023-05-10T02:42:28.864Z,6.74
2023-05-10T02:45:05.003Z,6.70
2023-05-10T02:47:32.457Z,6.70
2023-05-10T02:49:59.416Z,6.62
2023-05-10T02:52:30.281Z,6.66
2023-05-10T02:55:01.789Z,6.69
2023-05-10T02:57:31.325Z,6.66
2023-05-10T02:59:58.025Z,6.66
2023-05-10T03:02:24.928Z,6.62
2023-05-10T03:04:52.184Z,6.65
2023-05-10T03:07:22.226Z,6.68
2023-05-10T03:09:51.922Z,6.56
2023-05-10T03:12:24.250Z,6.67
2023-05-10T03:15:12.608Z,6.77
2023-05-10T03:17:48.275Z,6.80
2023-05-10T03:20:25.518Z,6.71
2023-05-10T03:23:02.327Z,6.67
2023-05-10T03:25:31.067Z,6.66
2023-05-10T03:27:58.694Z,6.58
2023-05-10T03:30:26.112Z,6.38
2023-05-10T03:32:52.896Z,6.55
2023-05-10T03:35:19.541Z,6.67
2023-05-10T03:37:46.198Z,6.63
2023-05-10T03:40:13.012Z,6.74
2023-05-10T03:42:39.734Z,6.81
2023-05-10T03:45:07.364Z,6.90
2023-05-10T03:47:34.104Z,6.98
2023-05-10T03:50:00.846Z,7.23
2023-05-10T03:52:27.558Z,7.26
2023-05-10T03:54:54.330Z,7.35
2023-05-10T03:57:20.956Z,7.14
2023-05-10T03:59:47.666Z,7.40
2023-05-10T04:02:14.384Z,7.40
2023-05-10T04:04:41.271Z,7.31
2023-05-10T04:07:07.976Z,7.47
2023-05-10T04:09:34.774Z,7.36
2023-05-10T04:12:03.361Z,7.31
2023-05-10T04:14:30.158Z,7.46
2023-05-10T04:16:56.886Z,7.47
2023-05-10T04:19:23.674Z,7.51
2023-05-10T04:21:50.377Z,7.49
2023-05-10T04:24:17.179Z,7.56
2023-05-10T04:26:43.846Z,7.62
2023-05-10T04:29:10.638Z,7.54
2023-05-10T04:31:37.430Z,7.66
2023-05-10T04:34:04.161Z,7.81
2023-05-10T04:36:30.889Z,7.94
2023-05-10T04:38:57.996Z,8.12
2023-05-10T04:41:25.864Z,8.35
2023-05-10T04:43:52.611Z,8.54
2023-05-10T04:46:19.372Z,8.80
2023-05-10T04:48:46.160Z,8.85
2023-05-10T04:51:13.280Z,9.02
2023-05-10T04:53:40.046Z,9.13
2023-05-10T04:56:07.120Z,9.27
2023-05-10T04:58:34.469Z,9.35
2023-05-10T05:01:08.939Z,9.61
2023-05-10T05:03:35.747Z,9.70
2023-05-10T05:06:02.538Z,9.45
2023-05-10T05:08:29.160Z,9.44
2023-05-10T05:10:55.945Z,9.54
2023-05-10T05:13:22.712Z,9.45
2023-05-10T05:15:49.556Z,9.63
2023-05-10T05:18:16.230Z,9.82
2023-05-10T05:20:42.919Z,10.04
2023-05-10T05:23:09.585Z,10.07
2023-05-10T05:25:36.697Z,10.26
2023-05-10T05:28:03.320Z,10.59
2023-05-10T05:30:29.989Z,10.72
2023-05-10T05:32:56.712Z,10.53
2023-05-10T05:35:23.405Z,10.60
2023-05-10T05:37:50.082Z,10.55
2023-05-10T05:40:16.778Z,10.83
2023-05-10T05:42:43.515Z,11.00
2023-05-10T05:45:14.123Z,11.24
2023-05-10T05:47:41.170Z,11.54
2023-05-10T05:50:08.404Z,11.41
2023-05-10T05:52:35.229Z,11.59
2023-05-10T05:55:01.986Z,11.51
2023-05-10T05:57:28.751Z,11.47
2023-05-10T05:59:55.457Z,11.50
2023-05-10T06:02:22.299Z,11.60
2023-05-10T06:04:49.061Z,11.17
2023-05-10T06:07:15.786Z,11.20
2023-05-10T06:09:42.450Z,11.49
2023-05-10T06:12:09.067Z,11.26
2023-05-10T06:14:35.850Z,11.45
2023-05-10T06:17:05.130Z,11.50
2023-05-10T06:19:32.093Z,11.60
2023-05-10T06:21:58.740Z,11.99
2023-05-10T06:24:25.421Z,11.71
2023-05-10T06:26:52.079Z,11.95
2023-05-10T06:29:18.773Z,11.95
2023-05-10T06:31:45.438Z,12.12
2023-05-10T06:34:12.764Z,12.27
2023-05-10T06:36:39.573Z,12.06
2023-05-10T06:39:06.776Z,12.10
2023-05-10T06:41:33.423Z,12.11
2023-05-10T06:44:00.237Z,11.71
2023-05-10T06:46:26.947Z,12.01
2023-05-10T06:48:53.739Z,12.03
2023-05-10T06:51:22.350Z,12.19
2023-05-10T06:53:49.351Z,12.21
2023-05-10T06:56:16.129Z,12.26
2023-05-10T06:58:42.835Z,12.17
2023-05-10T07:01:09.997Z,12.11
2023-05-10T07:03:36.829Z,12.37
2023-05-10T07:06:04.976Z,12.32
2023-05-10T07:08:35.531Z,12.51
2023-05-10T07:11:06.468Z,12.37
2023-05-10T07:13:33.477Z,12.17
2023-05-10T07:16:01.604Z,12.11
2023-05-10T07:18:28.548Z,12.35
2023-05-10T07:20:55.474Z,12.51
2023-05-10T07:23:22.338Z,12.39
2023-05-10T07:25:49.992Z,12.52
2023-05-10T07:28:17.406Z,12.42
2023-05-10T07:30:44.604Z,12.40
2023-05-10T07:33:13.693Z,12.80
2023-05-10T07:35:40.558Z,13.20
2023-05-10T07:38:07.220Z,13.22
2023-05-10T07:40:34.045Z,13.04
2023-05-10T07:43:03.754Z,12.94
2023-05-10T07:45:30.467Z,13.00
2023-05-10T07:47:57.438Z,13.31
2023-05-10T07:50:24.116Z,12.88
2023-05-10T07:52:50.936Z,13.38
2023-05-10T07:55:20.229Z,13.32
2023-05-10T07:57:46.849Z,13.44
2023-05-10T08:00:14.751Z,13.48
2023-05-10T08:02:42.325Z,13.62
2023-05-10T08:05:09.215Z,13.31
2023-05-10T08:07:36.444Z,13.34
2023-05-10T08:10:04.652Z,13.38
2023-05-10T08:12:31.489Z,13.38
2023-05-10T08:14:58.309Z,13.43
2023-05-10T08:17:25.099Z,13.57
2023-05-10T08:19:51.749Z,13.71
2023-05-10T08:22:18.413Z,13.80
2023-05-10T08:24:45.149Z,13.92
2023-05-10T08:27:12.046Z,14.09
2023-05-10T08:29:48.884Z,14.26
2023-05-10T08:32:16.717Z,14.47
2023-05-10T08:34:43.384Z,15.00
2023-05-10T08:37:11.781Z,14.57
2023-05-10T08:39:38.532Z,14.57
2023-05-10T08:42:06.435Z,14.54
2023-05-10T08:44:35.356Z,13.95
2023-05-10T08:50:01.564Z,14.86
2023-05-10T08:52:31.154Z,14.76
2023-05-10T08:54:58.182Z,14.57
2023-05-10T08:57:25.147Z,14.52
2023-05-10T08:59:52.233Z,14.05
2023-05-10T09:02:20.364Z,13.97
2023-05-10T09:04:47.235Z,13.84
2023-05-10T09:07:14.844Z,13.85
2023-05-10T09:09:41.763Z,13.85
2023-05-10T09:12:12.224Z,14.21
2023-05-10T09:14:39.661Z,14.43
2023-05-10T09:17:06.611Z,14.54
2023-05-10T09:19:33.432Z,14.73
2023-05-10T09:22:01.374Z,15.07
2023-05-10T09:24:28.234Z,15.97
2023-05-10T09:26:54.891Z,16.18
2023-05-10T09:29:21.639Z,15.66
2023-05-10T09:31:53.166Z,14.95
2023-05-10T09:34:21.545Z,14.92
2023-05-10T09:36:53.017Z,14.69
2023-05-10T09:39:19.839Z,14.38
2023-05-10T09:41:46.873Z,14.45
2023-05-10T09:44:19.671Z,14.66
2023-05-10T09:46:51.058Z,14.36
2023-05-10T09:49:17.966Z,14.51
2023-05-10T09:51:44.664Z,14.64
2023-05-10T09:54:20.450Z,14.88
2023-05-10T09:56:47.163Z,15.09
2023-05-10T09:59:14.129Z,15.24
2023-05-10T10:01:41.706Z,14.97
2023-05-10T10:04:10.861Z,15.14
2023-05-10T10:06:39.323Z,15.21
2023-05-10T10:09:09.973Z,15.29
2023-05-10T10:11:38.214Z,15.45
2023-05-10T10:14:05.783Z,15.28
2023-05-10T10:16:33.196Z,15.16
2023-05-10T10:19:00.071Z,15.20
2023-05-10T10:21:27.215Z,15.57
2023-05-10T10:23:54.159Z,15.63
2023-05-10T10:26:22.154Z,15.23
2023-05-10T10:29:04.091Z,15.46
2023-05-10T10:31:40.311Z,15.39
2023-05-10T10:34:08.177Z,15.35
2023-05-10T10:36:43.380Z,15.79
2023-05-10T10:39:11.731Z,15.61
2023-05-10T10:41:44.073Z,15.71
2023-05-10T10:44:23.397Z,16.15
2023-05-10T10:47:03.582Z,15.58
2023-05-10T10:49:37.059Z,15.60
2023-05-10T10:52:34.312Z,15.87
2023-05-10T10:55:10.415Z,15.85
2023-05-10T10:57:48.883Z,16.25
2023-05-10T11:00:19.263Z,16.74
2023-05-10T11:02:49.194Z,16.92
2023-05-10T11:05:26.247Z,16.76
2023-05-10T11:07:57.542Z,15.98
2023-05-10T11:10:25.685Z,15.78
2023-05-10T11:13:02.108Z,15.85
2023-05-10T11:15:36.983Z,15.91
2023-05-10T11:18:24.775Z,15.55
2023-05-10T11:20:53.305Z,15.96
2023-05-10T11:23:21.140Z,16.06
2023-05-10T11:25:49.575Z,16.25
2023-05-10T11:28:18.713Z,16.19
2023-05-10T11:30:46.372Z,16.34
2023-05-10T11:33:18.206Z,16.74
2023-05-10T11:35:45.059Z,17.45
2023-05-10T11:38:13.460Z,16.61
2023-05-10T11:40:42.857Z,16.40
2023-05-10T11:43:11.683Z,16.20
2023-05-10T11:45:39.121Z,16.18
2023-05-10T11:48:06.228Z,16.55
2023-05-10T11:50:33.707Z,16.41
2023-05-10T11:53:00.481Z,16.65
2023-05-10T11:55:27.178Z,17.05
2023-05-10T11:57:55.169Z,17.03
2023-05-10T12:00:22.442Z,16.26
2023-05-10T12:02:50.175Z,16.63
2023-05-10T12:05:17.660Z,16.71
2023-05-10T12:07:44.548Z,17.02
2023-05-10T12:10:16.503Z,17.16
2023-05-10T12:12:51.207Z,17.58
2023-05-10T12:15:25.855Z,18.21
2023-05-10T12:17:52.769Z,17.86
2023-05-10T12:20:24.901Z,17.20
2023-05-10T12:22:53.632Z,16.58
2023-05-10T12:25:21.395Z,16.51
2023-05-10T12:27:56.933Z,16.62
2023-05-10T12:30:25.408Z,16.62
2023-05-10T12:32:53.700Z,15.96
2023-05-10T12:35:23.135Z,15.92
2023-05-10T12:37:49.827Z,16.14
2023-05-10T12:40:16.728Z,16.47
2023-05-10T12:42:45.938Z,16.94
2023-05-10T12:45:12.947Z,17.97
2023-05-10T12:47:43.091Z,17.47
2023-05-10T12:50:11.012Z,16.84
2023-05-10T12:52:38.194Z,15.90
2023-05-10T12:55:05.542Z,15.80
2023-05-10T12:57:32.210Z,15.85
2023-05-10T12:59:58.885Z,15.63
2023-05-10T13:02:25.588Z,15.46
2023-05-10T13:04:52.442Z,15.87
2023-05-10T13:07:19.184Z,16.33
2023-05-10T13:09:45.850Z,16.45
2023-05-10T13:12:12.698Z,16.06
2023-05-10T13:14:41.375Z,15.92
2023-05-10T13:17:08.274Z,15.76
2023-05-10T13:19:35.057Z,15.53
2023-05-10T13:22:01.706Z,15.44
2023-05-10T13:24:28.457Z,15.58
2023-05-10T13:26:56.092Z,15.49
2023-05-10T13:29:23.554Z,15.21
2023-05-10T13:31:50.397Z,15.37
2023-05-10T13:34:17.254Z,15.45
2023-05-10T13:36:43.966Z,15.44
2023-05-10T13:39:10.649Z,15.39
2023-05-10T13:41:37.917Z,15.71
2023-05-10T13:44:04.745Z,15.87
2023-05-10T13:46:32.053Z,17.21
2023-05-10T13:48:58.869Z,17.64
2023-05-10T13:51:25.571Z,16.90
2023-05-10T13:53:53.140Z,17.48
2023-05-10T13:56:39.471Z,17.16
2023-05-10T13:59:06.097Z,16.89
2023-05-10T14:01:33.079Z,16.84
2023-05-10T14:03:59.910Z,16.39
2023-05-10T14:06:28.684Z,15.93
2023-05-10T14:08:55.369Z,15.68
2023-05-10T14:11:23.926Z,15.36
2023-05-10T14:13:51.288Z,15.41
2023-05-10T14:16:18.013Z,15.38
2023-05-10T14:18:44.787Z,15.24
2023-05-10T14:21:11.448Z,15.36
2023-05-10T14:23:38.140Z,15.31
2023-05-10T14:26:05.052Z,15.22
2023-05-10T14:28:32.088Z,15.34
2023-05-10T14:30:59.033Z,15.46
2023-05-10T14:33:26.079Z,15.26
2023-05-10T14:35:53.262Z,15.23
2023-05-10T14:38:19.896Z,15.23
2023-05-10T14:40:46.570Z,15.34
2023-05-10T14:43:13.451Z,15.28
2023-05-10T14:45:40.136Z,14.99
2023-05-10T14:48:06.966Z,14.81
2023-05-10T14:50:36.862Z,14.79
2023-05-10T14:53:37.848Z,14.95
2023-05-10T14:56:04.690Z,14.89
2023-05-10T14:58:33.956Z,14.32
2023-05-10T15:01:01.208Z,14.01
2023-05-10T15:03:28.461Z,13.98
2023-05-10T15:05:57.178Z,14.19
2023-05-10T15:08:24.818Z,14.33
2023-05-10T15:10:52.334Z,14.45
2023-05-10T15:13:19.030Z,14.29
2023-05-10T15:15:45.748Z,14.24
2023-05-10T15:18:12.704Z,14.10
2023-05-10T15:20:39.697Z,14.30
2023-05-10T15:23:06.504Z,14.52
2023-05-10T15:25:35.885Z,14.61
2023-05-10T15:28:03.771Z,14.61
2023-05-10T15:30:30.628Z,14.59
2023-05-10T15:32:57.743Z,14.30
2023-05-10T15:35:24.458Z,14.25
2023-05-10T15:37:51.427Z,14.25
2023-05-10T15:40:18.270Z,14.24
2023-05-10T15:42:44.959Z,14.33
2023-05-10T15:45:12.253Z,13.96
2023-05-10T15:47:40.647Z,13.90
2023-05-10T15:50:08.549Z,13.85
2023-05-10T15:52:36.232Z,13.81
2023-05-10T15:55:04.152Z,13.63
2023-05-10T15:57:31.014Z,13.67
2023-05-10T15:59:58.384Z,13.65
2023-05-10T16:02:25.138Z,13.58
2023-05-10T16:04:51.886Z,13.46
2023-05-10T16:07:18.655Z,13.51
2023-05-10T16:09:45.396Z,13.50
2023-05-10T16:12:12.056Z,13.45
2023-05-10T16:14:38.760Z,13.29
2023-05-10T16:17:05.893Z,13.06
2023-05-10T16:19:32.577Z,13.00
2023-05-10T16:21:59.446Z,12.87
2023-05-10T16:24:26.418Z,12.98
2023-05-10T16:26:53.359Z,13.10
2023-05-10T16:29:20.383Z,13.00
2023-05-10T16:31:47.073Z,12.83
2023-05-10T16:34:14.162Z,12.64
2023-05-10T16:36:41.233Z,12.81
2023-05-10T16:39:09.451Z,12.75
2023-05-10T16:41:36.099Z,12.83
2023-05-10T16:44:04.013Z,12.67
2023-05-10T16:46:30.749Z,12.66
2023-05-10T16:48:59.817Z,12.57
2023-05-10T16:51:27.341Z,12.50
2023-05-10T16:53:54.083Z,12.45
2023-05-10T16:56:22.296Z,12.23
2023-05-10T16:58:51.812Z,12.26
2023-05-10T17:01:18.596Z,12.16
2023-05-10T17:03:45.454Z,12.15
2023-05-10T17:06:12.444Z,11.95
2023-05-10T17:08:39.110Z,11.89
2023-05-10T17:11:06.082Z,11.88
2023-05-10T17:13:32.759Z,11.84
2023-05-10T17:16:03.586Z,11.46
2023-05-10T17:18:30.710Z,11.57
2023-05-10T17:20:57.443Z,11.45
2023-05-10T17:23:24.133Z,11.49
2023-05-10T17:25:51.049Z,11.35
2023-05-10T17:28:17.756Z,11.08
2023-05-10T17:30:44.569Z,10.94
2023-05-10T17:33:11.473Z,10.87
2023-05-10T17:35:38.166Z,10.81
2023-05-10T17:38:04.861Z,10.75
2023-05-10T17:40:32.187Z,10.76
2023-05-10T17:43:02.833Z,10.73
2023-05-10T17:45:29.630Z,10.53
2023-05-10T17:47:56.366Z,10.42
2023-05-10T17:50:23.128Z,10.42
2023-05-10T17:52:49.722Z,10.38
2023-05-10T17:55:16.795Z,10.47
2023-05-10T17:57:43.696Z,10.41
2023-05-10T18:00:11.070Z,10.37
2023-05-10T18:02:37.974Z,10.22
2023-05-10T18:05:05.487Z,10.05
2023-05-10T18:07:32.485Z,10.05
2023-05-10T18:09:59.236Z,9.93
2023-05-10T18:12:26.123Z,9.78
2023-05-10T18:14:52.797Z,9.77
2023-05-10T18:17:19.554Z,9.89
2023-05-10T18:19:46.222Z,9.96
2023-05-10T18:22:13.042Z,9.98
2023-05-10T18:24:40.328Z,9.89
2023-05-10T18:27:14.978Z,9.81
2023-05-10T18:29:42.345Z,9.83
2023-05-10T18:32:09.038Z,9.73
2023-05-10T18:34:35.888Z,9.65
2023-05-10T18:37:07.453Z,9.67
2023-05-10T18:39:34.531Z,9.78
2023-05-10T18:42:01.496Z,9.85
2023-05-10T18:44:29.049Z,9.95
2023-05-10T18:46:55.976Z,9.76
2023-05-10T18:49:23.004Z,9.93
2023-05-10T18:51:49.704Z,9.76
2023-05-10T18:54:17.105Z,9.80
2023-05-10T18:56:45.379Z,9.72
2023-05-10T18:59:12.340Z,9.52
2023-05-10T19:01:41.102Z,9.38
2023-05-10T19:04:08.998Z,9.11
2023-05-10T19:06:36.211Z,9.00
2023-05-10T19:09:03.230Z,8.86
2023-05-10T19:11:32.335Z,8.81
2023-05-10T19:13:59.070Z,8.86
2023-05-10T19:16:29.015Z,8.77
2023-05-10T19:18:57.697Z,8.70
2023-05-10T19:21:24.432Z,8.77
2023-05-10T19:23:51.194Z,8.68
2023-05-10T19:26:18.426Z,8.69
2023-05-10T19:28:45.310Z,8.82
2023-05-10T19:31:11.937Z,8.76
2023-05-10T19:33:39.111Z,8.61
2023-05-10T19:36:05.935Z,8.48
2023-05-10T19:38:34.525Z,8.58
2023-05-10T19:41:01.435Z,8.62
2023-05-10T19:43:30.330Z,8.62
2023-05-10T19:45:59.432Z,8.63
2023-05-10T19:48:26.854Z,8.51
2023-05-10T19:50:54.906Z,8.52
2023-05-10T19:53:21.581Z,8.53
2023-05-10T19:55:48.538Z,8.51
2023-05-10T19:58:15.195Z,8.51
2023-05-10T20:00:41.924Z,8.54
2023-05-10T20:03:09.395Z,8.46
2023-05-10T20:05:36.240Z,8.60
2023-05-10T20:08:02.886Z,8.33
2023-05-10T20:10:29.864Z,8.21
2023-05-10T20:12:56.494Z,8.24
2023-05-10T20:15:23.642Z,8.12
2023-05-10T20:17:52.892Z,7.98
2023-05-10T20:20:20.742Z,7.82
2023-05-10T20:22:48.603Z,7.78
2023-05-10T20:25:16.807Z,7.80
2023-05-10T20:27:43.634Z,7.76
2023-05-10T20:30:10.800Z,7.85
2023-05-10T20:32:38.201Z,7.89
2023-05-10T20:35:05.720Z,7.91
2023-05-10T20:37:32.574Z,7.95
2023-05-10T20:39:59.353Z,7.91
2023-05-10T20:42:26.059Z,7.89
2023-05-10T20:44:52.725Z,8.01
2023-05-10T20:47:19.685Z,8.03
2023-05-10T20:49:46.570Z,8.11
2023-05-10T20:52:13.295Z,8.15
2023-05-10T20:54:40.020Z,8.15
2023-05-10T20:57:06.786Z,8.14
2023-05-10T20:59:33.892Z,7.92
2023-05-10T21:02:00.797Z,8.09
2023-05-10T21:04:27.658Z,8.25
2023-05-10T21:06:55.720Z,8.11
2023-05-10T21:09:22.616Z,8.14
2023-05-10T21:11:50.454Z,8.25
2023-05-10T21:14:17.185Z,8.35
2023-05-10T21:16:43.926Z,8.13
2023-05-10T21:19:11.410Z,8.42
2023-05-10T21:21:38.060Z,8.45
2023-05-10T21:24:05.042Z,8.49
2023-05-10T21:26:31.663Z,8.37
2023-05-10T21:28:59.397Z,8.50
2023-05-10T21:31:26.220Z,8.43
2023-05-10T21:33:52.944Z,8.48
2023-05-10T21:38:46.814Z,8.32
2023-05-10T21:41:13.500Z,8.46
2023-05-10T21:43:40.116Z,8.43
2023-05-10T21:46:07.522Z,8.26
2023-05-10T21:48:34.209Z,8.15
2023-05-10T21:51:01.727Z,8.03
2023-05-10T21:53:28.870Z,7.92
2023-05-10T21:55:56.394Z,7.94
2023-05-10T21:58:23.565Z,8.18
2023-05-10T22:00:50.257Z,8.22
2023-05-10T22:03:18.059Z,8.06
2023-05-10T22:05:44.815Z,7.93
2023-05-10T22:08:11.482Z,7.90
2023-05-10T22:10:38.180Z,7.86
2023-05-10T22:13:04.807Z,7.79
2023-05-10T22:15:34.182Z,7.80
2023-05-10T22:18:02.443Z,7.70
2023-05-10T22:20:29.287Z,7.70
2023-05-10T22:22:56.169Z,7.66
2023-05-10T22:25:22.934Z,7.61
2023-05-10T22:27:49.561Z,7.57
2023-05-10T22:30:16.619Z,7.63
2023-05-10T22:32:43.757Z,7.44
2023-05-10T22:35:10.488Z,7.62
2023-05-10T22:37:37.318Z,7.66
2023-05-10T22:40:04.334Z,7.80
2023-05-10T22:42:31.031Z,7.93
2023-05-10T22:44:58.820Z,7.97
2023-05-10T22:47:25.734Z,7.97
2023-05-10T22:49:52.456Z,7.84
2023-05-10T22:52:19.154Z,7.73
2023-05-10T22:54:45.851Z,7.37
2023-05-10T22:57:12.799Z,7.66
2023-05-10T22:59:39.429Z,7.70
2023-05-10T23:02:06.183Z,7.81
2023-05-10T23:04:32.904Z,7.82
2023-05-10T23:06:59.677Z,7.82
2023-05-10T23:09:26.293Z,7.67
2023-05-10T23:11:52.969Z,7.80
2023-05-10T23:14:19.611Z,7.85
2023-05-10T23:16:46.326Z,7.69
2023-05-10T23:19:13.009Z,7.71
2023-05-10T23:21:39.678Z,7.58
2023-05-10T23:24:08.677Z,7.62
2023-05-10T23:26:35.492Z,7.94
2023-05-10T23:29:02.491Z,7.91
2023-05-10T23:31:29.233Z,7.68
2023-05-10T23:33:56.270Z,7.56
2023-05-10T23:36:23.000Z,7.73
2023-05-10T23:38:49.644Z,7.75
2023-05-10T23:41:16.287Z,7.84
2023-05-10T23:43:42.956Z,7.66
2023-05-10T23:46:09.601Z,7.60
2023-05-10T23:48:36.273Z,7.45
2023-05-10T23:51:03.713Z,7.38
2023-05-10T23:53:30.682Z,7.33
2023-05-10T23:55:57.498Z,7.27
2023-05-10T23:58:24.270Z,7.25
